Aviation Digital Data Service (ADDS)

Output produced by METARs form (1351 UTC 27 June 2017)
found at http://aviationweather.gov/adds/metars/
 
KLWB 271120Z 2712/2812 28004KT P6SM BKN070 
     FM271400 29007KT P6SM VCSH SCT050 BKN070 
     FM271800 30010G19KT P6SM FEW050 SCT070 
     FM272200 30007KT P6SM FEW050 FEW250 
     FM280200 VRB03KT P6SM SKC